sensor_id;sensor_type;location;lat;lon;timestamp;temperature;humidity
29713;DHT22;16623;53.632;10.016;2022-12-29T00:00:49;8.40;99.90
29713;DHT22;16623;53.632;10.016;2022-12-29T00:03:14;8.40;99.90
29713;DHT22;16623;53.632;10.016;2022-12-29T00:05:40;8.50;99.90
29713;DHT22;16623;53.632;10.016;2022-12-29T00:08:05;8.40;99.90
29713;DHT22;16623;53.632;10.016;2022-12-29T00:10:31;8.50;99.90
29713;DHT22;16623;53.632;10.016;2022-12-29T00:12:58;8.50;99.90
29713;DHT22;16623;53.632;10.016;2022-12-29T00:15:42;8.60;99.90
29713;DHT22;16623;53.632;10.016;2022-12-29T00:18:08;8.60;99.90
29713;DHT22;16623;53.632;10.016;2022-12-29T00:20:37;8.70;99.90
29713;DHT22;16623;53.632;10.016;2022-12-29T00:23:21;8.60;99.90
29713;DHT22;16623;53.632;10.016;2022-12-29T00:26:15;8.70;99.90
29713;DHT22;16623;53.632;10.016;2022-12-29T00:29:00;8.70;99.90
29713;DHT22;16623;53.632;10.016;2022-12-29T00:31:44;8.80;99.90
29713;DHT22;16623;53.632;10.016;2022-12-29T00:34:28;8.70;99.90
29713;DHT22;16623;53.632;10.016;2022-12-29T00:37:14;8.80;99.90
29713;DHT22;16623;53.632;10.016;2022-12-29T00:39:40;8.90;99.90
29713;DHT22;16623;53.632;10.016;2022-12-29T00:42:24;8.90;99.90
29713;DHT22;16623;53.632;10.016;2022-12-29T00:45:08;8.90;99.90
29713;DHT22;16623;53.632;10.016;2022-12-29T00:47:34;8.90;99.90
29713;DHT22;16623;53.632;10.016;2022-12-29T00:50:00;8.90;99.90
29713;DHT22;16623;53.632;10.016;2022-12-29T00:52:25;9.00;99.90
29713;DHT22;16623;53.632;10.016;2022-12-29T00:54:50;8.90;99.90
29713;DHT22;16623;53.632;10.016;2022-12-29T00:57:16;9.00;99.90
29713;DHT22;16623;53.632;10.016;2022-12-29T00:59:42;9.10;99.90
29713;DHT22;16623;53.632;10.016;2022-12-29T01:02:09;9.10;99.90
29713;DHT22;16623;53.632;10.016;2022-12-29T01:04:35;9.10;99.90
29713;DHT22;16623;53.632;10.016;2022-12-29T01:07:00;9.10;99.90
29713;DHT22;16623;53.632;10.016;2022-12-29T01:09:26;9.00;99.90
29713;DHT22;16623;53.632;10.016;2022-12-29T01:12:11;9.00;99.90
29713;DHT22;16623;53.632;10.016;2022-12-29T01:14:37;9.10;99.90
29713;DHT22;16623;53.632;10.016;2022-12-29T01:17:03;9.10;99.90
29713;DHT22;16623;53.632;10.016;2022-12-29T01:19:29;9.20;99.90
29713;DHT22;16623;53.632;10.016;2022-12-29T01:21:54;9.30;99.90
29713;DHT22;16623;53.632;10.016;2022-12-29T01:24:20;9.20;99.90
29713;DHT22;16623;53.632;10.016;2022-12-29T01:26:46;9.30;99.90
29713;DHT22;16623;53.632;10.016;2022-12-29T01:29:12;9.30;99.90
29713;DHT22;16623;53.632;10.016;2022-12-29T01:31:37;9.30;99.90
29713;DHT22;16623;53.632;10.016;2022-12-29T01:34:03;9.30;99.90
29713;DHT22;16623;53.632;10.016;2022-12-29T01:36:29;9.20;99.90
29713;DHT22;16623;53.632;10.016;2022-12-29T01:38:55;9.30;99.90
29713;DHT22;16623;53.632;10.016;2022-12-29T01:41:21;9.30;99.90
29713;DHT22;16623;53.632;10.016;2022-12-29T01:43:55;9.30;99.90
29713;DHT22;16623;53.632;10.016;2022-12-29T01:46:23;9.40;99.90
29713;DHT22;16623;53.632;10.016;2022-12-29T01:48:54;10.00;99.90
29713;DHT22;16623;53.632;10.016;2022-12-29T01:51:23;9.40;99.90
29713;DHT22;16623;53.632;10.016;2022-12-29T01:53:50;9.40;99.90
29713;DHT22;16623;53.632;10.016;2022-12-29T01:56:17;9.40;99.90
29713;DHT22;16623;53.632;10.016;2022-12-29T01:58:47;9.30;99.90
29713;DHT22;16623;53.632;10.016;2022-12-29T02:01:15;10.00;99.90
29713;DHT22;16623;53.632;10.016;2022-12-29T02:03:43;9.40;99.90
29713;DHT22;16623;53.632;10.016;2022-12-29T02:06:22;9.40;99.90
29713;DHT22;16623;53.632;10.016;2022-12-29T02:08:50;9.30;99.90
29713;DHT22;16623;53.632;10.016;2022-12-29T02:11:16;9.40;99.90
29713;DHT22;16623;53.632;10.016;2022-12-29T02:13:41;9.50;99.90
29713;DHT22;16623;53.632;10.016;2022-12-29T02:16:27;9.50;99.90
29713;DHT22;16623;53.632;10.016;2022-12-29T02:19:27;9.50;99.90
29713;DHT22;16623;53.632;10.016;2022-12-29T02:24:47;9.50;99.90
29713;DHT22;16623;53.632;10.016;2022-12-29T02:27:48;9.50;99.90
29713;DHT22;16623;53.632;10.016;2022-12-29T02:33:23;9.60;99.90
29713;DHT22;16623;53.632;10.016;2022-12-29T02:36:01;9.60;99.90
29713;DHT22;16623;53.632;10.016;2022-12-29T02:41:41;9.70;99.90
29713;DHT22;16623;53.632;10.016;2022-12-29T02:44:46;9.70;99.90
29713;DHT22;16623;53.632;10.016;2022-12-29T02:47:15;9.60;99.90
29713;DHT22;16623;53.632;10.016;2022-12-29T02:49:50;9.60;99.90
29713;DHT22;16623;53.632;10.016;2022-12-29T02:52:25;9.60;99.90
29713;DHT22;16623;53.632;10.016;2022-12-29T02:54:54;9.50;99.90
29713;DHT22;16623;53.632;10.016;2022-12-29T02:59:52;8.00;99.90
29713;DHT22;16623;53.632;10.016;2022-12-29T03:05:17;9.50;99.90
29713;DHT22;16623;53.632;10.016;2022-12-29T03:08:05;9.50;99.90
29713;DHT22;16623;53.632;10.016;2022-12-29T03:10:58;9.50;99.90
29713;DHT22;16623;53.632;10.016;2022-12-29T03:13:39;9.50;99.90
29713;DHT22;16623;53.632;10.016;2022-12-29T03:16:45;9.50;99.90
29713;DHT22;16623;53.632;10.016;2022-12-29T03:19:26;9.50;99.90
29713;DHT22;16623;53.632;10.016;2022-12-29T03:24:43;9.40;99.90
29713;DHT22;16623;53.632;10.016;2022-12-29T03:27:13;9.50;99.90
29713;DHT22;16623;53.632;10.016;2022-12-29T03:29:43;9.50;99.90
29713;DHT22;16623;53.632;10.016;2022-12-29T03:32:11;9.40;99.90
29713;DHT22;16623;53.632;10.016;2022-12-29T03:34:39;9.50;99.90
29713;DHT22;16623;53.632;10.016;2022-12-29T03:37:12;9.60;99.90
29713;DHT22;16623;53.632;10.016;2022-12-29T03:39:39;7.80;99.90
29713;DHT22;16623;53.632;10.016;2022-12-29T03:42:10;9.60;99.90
29713;DHT22;16623;53.632;10.016;2022-12-29T03:44:40;9.60;99.90
29713;DHT22;16623;53.632;10.016;2022-12-29T03:47:06;9.70;99.90
29713;DHT22;16623;53.632;10.016;2022-12-29T03:49:32;9.60;99.90
29713;DHT22;16623;53.632;10.016;2022-12-29T03:51:58;9.60;99.90
29713;DHT22;16623;53.632;10.016;2022-12-29T03:54:24;9.70;99.90
29713;DHT22;16623;53.632;10.016;2022-12-29T03:56:50;9.70;99.90
29713;DHT22;16623;53.632;10.016;2022-12-29T03:59:18;9.70;99.90
29713;DHT22;16623;53.632;10.016;2022-12-29T04:01:43;9.60;99.90
29713;DHT22;16623;53.632;10.016;2022-12-29T04:04:08;9.70;99.90
29713;DHT22;16623;53.632;10.016;2022-12-29T04:06:34;9.70;99.90
29713;DHT22;16623;53.632;10.016;2022-12-29T04:09:00;9.70;99.90
29713;DHT22;16623;53.632;10.016;2022-12-29T04:11:25;10.30;99.90
29713;DHT22;16623;53.632;10.016;2022-12-29T04:13:51;9.70;99.90
29713;DHT22;16623;53.632;10.016;2022-12-29T04:16:16;9.80;99.90
29713;DHT22;16623;53.632;10.016;2022-12-29T04:18:42;9.80;99.90
29713;DHT22;16623;53.632;10.016;2022-12-29T04:21:07;9.80;99.90
29713;DHT22;16623;53.632;10.016;2022-12-29T04:23:35;9.80;99.90
29713;DHT22;16623;53.632;10.016;2022-12-29T04:26:02;9.70;99.90
29713;DHT22;16623;53.632;10.016;2022-12-29T04:28:28;9.80;99.90
29713;DHT22;16623;53.632;10.016;2022-12-29T04:30:54;9.80;99.90
29713;DHT22;16623;53.632;10.016;2022-12-29T04:33:20;9.70;99.90
29713;DHT22;16623;53.632;10.016;2022-12-29T04:35:46;9.80;99.90
29713;DHT22;16623;53.632;10.016;2022-12-29T04:38:12;9.80;99.90
29713;DHT22;16623;53.632;10.016;2022-12-29T04:40:39;9.80;99.90
29713;DHT22;16623;53.632;10.016;2022-12-29T04:43:05;9.90;99.90
29713;DHT22;16623;53.632;10.016;2022-12-29T04:45:30;9.80;99.90
29713;DHT22;16623;53.632;10.016;2022-12-29T04:47:56;9.90;99.90
29713;DHT22;16623;53.632;10.016;2022-12-29T04:50:22;9.90;99.90
29713;DHT22;16623;53.632;10.016;2022-12-29T04:52:53;9.90;99.90
29713;DHT22;16623;53.632;10.016;2022-12-29T04:55:19;9.90;99.90
29713;DHT22;16623;53.632;10.016;2022-12-29T04:57:45;9.80;99.90
29713;DHT22;16623;53.632;10.016;2022-12-29T05:00:11;9.80;99.90
29713;DHT22;16623;53.632;10.016;2022-12-29T05:02:37;9.90;99.90
29713;DHT22;16623;53.632;10.016;2022-12-29T05:05:04;9.90;99.90
29713;DHT22;16623;53.632;10.016;2022-12-29T05:07:29;9.90;99.90
29713;DHT22;16623;53.632;10.016;2022-12-29T05:09:55;9.80;99.90
29713;DHT22;16623;53.632;10.016;2022-12-29T05:12:20;9.70;99.90
29713;DHT22;16623;53.632;10.016;2022-12-29T05:14:46;9.70;99.90
29713;DHT22;16623;53.632;10.016;2022-12-29T05:20:33;9.80;99.90
29713;DHT22;16623;53.632;10.016;2022-12-29T05:22:58;9.80;99.90
29713;DHT22;16623;53.632;10.016;2022-12-29T05:25:24;9.80;99.90
29713;DHT22;16623;53.632;10.016;2022-12-29T05:27:51;9.80;99.90
29713;DHT22;16623;53.632;10.016;2022-12-29T05:30:16;9.90;99.90
29713;DHT22;16623;53.632;10.016;2022-12-29T05:32:42;9.90;99.90
29713;DHT22;16623;53.632;10.016;2022-12-29T05:35:08;9.80;99.90
29713;DHT22;16623;53.632;10.016;2022-12-29T05:37:33;10.00;99.90
29713;DHT22;16623;53.632;10.016;2022-12-29T05:39:59;10.00;99.90
29713;DHT22;16623;53.632;10.016;2022-12-29T05:42:24;9.70;99.90
29713;DHT22;16623;53.632;10.016;2022-12-29T05:44:50;10.10;99.90
29713;DHT22;16623;53.632;10.016;2022-12-29T05:47:19;10.10;99.90
29713;DHT22;16623;53.632;10.016;2022-12-29T05:49:44;10.10;99.90
29713;DHT22;16623;53.632;10.016;2022-12-29T05:52:44;10.10;99.90
29713;DHT22;16623;53.632;10.016;2022-12-29T05:55:10;10.10;99.90
29713;DHT22;16623;53.632;10.016;2022-12-29T05:57:35;10.30;99.90
29713;DHT22;16623;53.632;10.016;2022-12-29T06:00:02;10.30;99.90
29713;DHT22;16623;53.632;10.016;2022-12-29T06:02:28;10.30;99.90
29713;DHT22;16623;53.632;10.016;2022-12-29T06:04:53;10.30;99.90
29713;DHT22;16623;53.632;10.016;2022-12-29T06:07:19;10.30;99.90
29713;DHT22;16623;53.632;10.016;2022-12-29T06:09:44;10.30;99.90
29713;DHT22;16623;53.632;10.016;2022-12-29T06:12:10;10.30;99.90
29713;DHT22;16623;53.632;10.016;2022-12-29T06:14:35;10.40;99.90
29713;DHT22;16623;53.632;10.016;2022-12-29T06:17:01;10.40;99.90
29713;DHT22;16623;53.632;10.016;2022-12-29T06:19:26;10.40;99.90
29713;DHT22;16623;53.632;10.016;2022-12-29T06:21:52;10.50;99.90
29713;DHT22;16623;53.632;10.016;2022-12-29T06:24:18;10.50;99.90
29713;DHT22;16623;53.632;10.016;2022-12-29T06:26:43;10.50;99.90
29713;DHT22;16623;53.632;10.016;2022-12-29T06:29:09;10.50;99.90
29713;DHT22;16623;53.632;10.016;2022-12-29T06:31:34;10.50;99.90
29713;DHT22;16623;53.632;10.016;2022-12-29T06:34:00;10.50;99.90
29713;DHT22;16623;53.632;10.016;2022-12-29T06:36:26;10.50;99.90
29713;DHT22;16623;53.632;10.016;2022-12-29T06:38:51;10.40;99.90
29713;DHT22;16623;53.632;10.016;2022-12-29T06:41:18;10.50;99.90
29713;DHT22;16623;53.632;10.016;2022-12-29T06:43:44;10.40;99.90
29713;DHT22;16623;53.632;10.016;2022-12-29T06:46:09;10.40;99.90
29713;DHT22;16623;53.632;10.016;2022-12-29T06:48:35;10.50;99.90
29713;DHT22;16623;53.632;10.016;2022-12-29T06:51:01;10.30;99.90
29713;DHT22;16623;53.632;10.016;2022-12-29T06:53:26;10.30;99.90
29713;DHT22;16623;53.632;10.016;2022-12-29T06:55:52;10.30;99.90
29713;DHT22;16623;53.632;10.016;2022-12-29T06:58:17;10.20;99.90
29713;DHT22;16623;53.632;10.016;2022-12-29T07:00:43;10.30;99.90
29713;DHT22;16623;53.632;10.016;2022-12-29T07:03:08;10.40;99.90
29713;DHT22;16623;53.632;10.016;2022-12-29T07:05:34;10.30;99.90
29713;DHT22;16623;53.632;10.016;2022-12-29T07:07:59;10.20;99.90
29713;DHT22;16623;53.632;10.016;2022-12-29T07:10:25;10.30;99.90
29713;DHT22;16623;53.632;10.016;2022-12-29T07:12:51;10.20;99.90
29713;DHT22;16623;53.632;10.016;2022-12-29T07:15:18;10.10;99.90
29713;DHT22;16623;53.632;10.016;2022-12-29T07:17:44;10.10;99.90
29713;DHT22;16623;53.632;10.016;2022-12-29T07:20:10;10.20;99.90
29713;DHT22;16623;53.632;10.016;2022-12-29T07:22:36;10.10;99.90
29713;DHT22;16623;53.632;10.016;2022-12-29T07:25:01;10.10;99.90
29713;DHT22;16623;53.632;10.016;2022-12-29T07:27:28;10.10;99.90
29713;DHT22;16623;53.632;10.016;2022-12-29T07:29:53;10.20;99.90
29713;DHT22;16623;53.632;10.016;2022-12-29T07:32:19;10.10;99.90
29713;DHT22;16623;53.632;10.016;2022-12-29T07:34:45;10.10;99.90
29713;DHT22;16623;53.632;10.016;2022-12-29T07:37:14;10.00;99.90
29713;DHT22;16623;53.632;10.016;2022-12-29T07:39:39;10.20;99.90
29713;DHT22;16623;53.632;10.016;2022-12-29T07:42:05;10.10;99.90
29713;DHT22;16623;53.632;10.016;2022-12-29T07:44:31;10.10;99.90
29713;DHT22;16623;53.632;10.016;2022-12-29T07:46:56;10.20;99.90
29713;DHT22;16623;53.632;10.016;2022-12-29T07:49:22;10.20;99.90
29713;DHT22;16623;53.632;10.016;2022-12-29T07:51:47;10.20;99.90
29713;DHT22;16623;53.632;10.016;2022-12-29T07:54:13;10.30;99.90
29713;DHT22;16623;53.632;10.016;2022-12-29T07:56:38;10.30;99.90
29713;DHT22;16623;53.632;10.016;2022-12-29T07:59:04;10.20;99.90
29713;DHT22;16623;53.632;10.016;2022-12-29T08:01:30;10.20;99.90
29713;DHT22;16623;53.632;10.016;2022-12-29T08:03:55;10.30;99.90
29713;DHT22;16623;53.632;10.016;2022-12-29T08:06:21;10.20;99.90
29713;DHT22;16623;53.632;10.016;2022-12-29T08:08:46;10.30;99.90
29713;DHT22;16623;53.632;10.016;2022-12-29T08:11:12;10.20;99.90
29713;DHT22;16623;53.632;10.016;2022-12-29T08:13:38;10.20;99.90
29713;DHT22;16623;53.632;10.016;2022-12-29T08:16:03;10.20;99.90
29713;DHT22;16623;53.632;10.016;2022-12-29T08:18:29;10.30;99.90
29713;DHT22;16623;53.632;10.016;2022-12-29T08:20:55;10.30;99.90
29713;DHT22;16623;53.632;10.016;2022-12-29T08:23:20;9.20;99.90
29713;DHT22;16623;53.632;10.016;2022-12-29T08:25:46;10.30;99.90
29713;DHT22;16623;53.632;10.016;2022-12-29T08:28:11;10.20;99.90
29713;DHT22;16623;53.632;10.016;2022-12-29T08:30:37;11.80;99.90
29713;DHT22;16623;53.632;10.016;2022-12-29T08:33:02;10.30;99.90
29713;DHT22;16623;53.632;10.016;2022-12-29T08:35:28;10.20;99.90
29713;DHT22;16623;53.632;10.016;2022-12-29T08:37:53;10.20;99.90
29713;DHT22;16623;53.632;10.016;2022-12-29T08:40:19;9.90;99.90
29713;DHT22;16623;53.632;10.016;2022-12-29T08:42:44;10.20;99.90
29713;DHT22;16623;53.632;10.016;2022-12-29T08:45:17;10.20;99.90
29713;DHT22;16623;53.632;10.016;2022-12-29T08:47:43;10.30;99.90
29713;DHT22;16623;53.632;10.016;2022-12-29T08:50:08;8.60;99.90
29713;DHT22;16623;53.632;10.016;2022-12-29T08:52:34;10.30;99.90
29713;DHT22;16623;53.632;10.016;2022-12-29T08:54:59;10.30;99.90
29713;DHT22;16623;53.632;10.016;2022-12-29T08:57:25;10.40;99.90
29713;DHT22;16623;53.632;10.016;2022-12-29T08:59:50;10.40;99.90
29713;DHT22;16623;53.632;10.016;2022-12-29T09:02:16;10.40;99.90
29713;DHT22;16623;53.632;10.016;2022-12-29T09:04:41;10.40;99.90
29713;DHT22;16623;53.632;10.016;2022-12-29T09:07:07;10.40;99.90
29713;DHT22;16623;53.632;10.016;2022-12-29T09:09:32;10.50;99.90
29713;DHT22;16623;53.632;10.016;2022-12-29T09:11:58;10.50;99.90
29713;DHT22;16623;53.632;10.016;2022-12-29T09:14:24;10.60;99.90
29713;DHT22;16623;53.632;10.016;2022-12-29T09:16:51;10.70;99.90
29713;DHT22;16623;53.632;10.016;2022-12-29T09:19:35;10.70;99.90
29713;DHT22;16623;53.632;10.016;2022-12-29T09:22:01;10.70;99.90
29713;DHT22;16623;53.632;10.016;2022-12-29T09:24:26;10.70;99.90
29713;DHT22;16623;53.632;10.016;2022-12-29T09:26:52;10.70;99.90
29713;DHT22;16623;53.632;10.016;2022-12-29T09:29:17;10.80;99.90
29713;DHT22;16623;53.632;10.016;2022-12-29T09:31:43;10.70;99.90
29713;DHT22;16623;53.632;10.016;2022-12-29T09:34:08;10.80;99.90
29713;DHT22;16623;53.632;10.016;2022-12-29T09:36:34;10.70;99.90
29713;DHT22;16623;53.632;10.016;2022-12-29T09:38:59;10.70;99.90
29713;DHT22;16623;53.632;10.016;2022-12-29T09:41:29;10.70;99.90
29713;DHT22;16623;53.632;10.016;2022-12-29T09:44:23;10.90;99.90
29713;DHT22;16623;53.632;10.016;2022-12-29T09:46:53;10.90;99.90
29713;DHT22;16623;53.632;10.016;2022-12-29T09:52:24;10.90;99.90
29713;DHT22;16623;53.632;10.016;2022-12-29T09:55:15;10.90;99.90
29713;DHT22;16623;53.632;10.016;2022-12-29T09:57:47;10.90;99.90
29713;DHT22;16623;53.632;10.016;2022-12-29T10:00:20;10.90;99.90
29713;DHT22;16623;53.632;10.016;2022-12-29T10:02:52;10.90;99.90
29713;DHT22;16623;53.632;10.016;2022-12-29T10:08:26;10.90;99.90
29713;DHT22;16623;53.632;10.016;2022-12-29T10:10:56;11.00;99.90
29713;DHT22;16623;53.632;10.016;2022-12-29T10:16:33;10.90;99.90
29713;DHT22;16623;53.632;10.016;2022-12-29T10:24:34;10.90;99.90
29713;DHT22;16623;53.632;10.016;2022-12-29T10:27:03;10.80;99.90
29713;DHT22;16623;53.632;10.016;2022-12-29T10:29:35;10.90;99.90
29713;DHT22;16623;53.632;10.016;2022-12-29T10:32:06;10.70;99.90
29713;DHT22;16623;53.632;10.016;2022-12-29T10:34:41;10.80;99.90
29713;DHT22;16623;53.632;10.016;2022-12-29T10:39:48;10.60;99.90
29713;DHT22;16623;53.632;10.016;2022-12-29T10:44:46;10.70;99.90
29713;DHT22;16623;53.632;10.016;2022-12-29T10:47:17;10.70;99.90
29713;DHT22;16623;53.632;10.016;2022-12-29T10:49:45;10.60;99.90
29713;DHT22;16623;53.632;10.016;2022-12-29T10:52:12;10.70;99.90
29713;DHT22;16623;53.632;10.016;2022-12-29T10:54:52;10.70;99.90
29713;DHT22;16623;53.632;10.016;2022-12-29T10:57:30;10.80;99.90
29713;DHT22;16623;53.632;10.016;2022-12-29T10:59:57;10.90;99.90
29713;DHT22;16623;53.632;10.016;2022-12-29T11:08:04;11.00;99.90
29713;DHT22;16623;53.632;10.016;2022-12-29T11:13:10;10.90;99.90
29713;DHT22;16623;53.632;10.016;2022-12-29T11:15:42;10.80;99.90
29713;DHT22;16623;53.632;10.016;2022-12-29T11:18:26;10.80;99.90
29713;DHT22;16623;53.632;10.016;2022-12-29T11:20:56;10.80;99.90
29713;DHT22;16623;53.632;10.016;2022-12-29T11:23:36;10.80;99.90
29713;DHT22;16623;53.632;10.016;2022-12-29T11:26:20;10.90;99.90
29713;DHT22;16623;53.632;10.016;2022-12-29T11:29:05;11.00;99.90
29713;DHT22;16623;53.632;10.016;2022-12-29T11:31:54;10.90;99.90
29713;DHT22;16623;53.632;10.016;2022-12-29T11:34:25;11.00;99.90
29713;DHT22;16623;53.632;10.016;2022-12-29T11:36:54;11.00;99.90
29713;DHT22;16623;53.632;10.016;2022-12-29T11:39:32;11.00;99.90
29713;DHT22;16623;53.632;10.016;2022-12-29T11:42:00;11.00;99.90
29713;DHT22;16623;53.632;10.016;2022-12-29T11:44:30;11.00;99.90
29713;DHT22;16623;53.632;10.016;2022-12-29T11:47:00;11.20;99.90
29713;DHT22;16623;53.632;10.016;2022-12-29T11:49:26;11.10;99.90
29713;DHT22;16623;53.632;10.016;2022-12-29T11:51:53;11.10;99.90
29713;DHT22;16623;53.632;10.016;2022-12-29T11:54:28;11.10;99.90
29713;DHT22;16623;53.632;10.016;2022-12-29T11:56:55;11.00;99.90
29713;DHT22;16623;53.632;10.016;2022-12-29T11:59:37;11.10;99.90
29713;DHT22;16623;53.632;10.016;2022-12-29T12:02:35;11.00;99.90
29713;DHT22;16623;53.632;10.016;2022-12-29T12:05:16;11.00;99.90
29713;DHT22;16623;53.632;10.016;2022-12-29T12:07:46;11.00;99.90
29713;DHT22;16623;53.632;10.016;2022-12-29T12:10:22;11.00;99.90
29713;DHT22;16623;53.632;10.016;2022-12-29T12:15:39;11.10;99.90
29713;DHT22;16623;53.632;10.016;2022-12-29T12:18:18;11.00;99.90
29713;DHT22;16623;53.632;10.016;2022-12-29T12:20:50;10.90;99.90
29713;DHT22;16623;53.632;10.016;2022-12-29T12:23:25;11.00;99.90
29713;DHT22;16623;53.632;10.016;2022-12-29T12:29:24;10.90;99.90
29713;DHT22;16623;53.632;10.016;2022-12-29T12:32:04;10.90;99.90
29713;DHT22;16623;53.632;10.016;2022-12-29T12:34:40;10.90;99.90
29713;DHT22;16623;53.632;10.016;2022-12-29T12:43:17;10.90;99.90
29713;DHT22;16623;53.632;10.016;2022-12-29T12:49:01;10.90;99.90
29713;DHT22;16623;53.632;10.016;2022-12-29T12:51:57;10.90;99.90
29713;DHT22;16623;53.632;10.016;2022-12-29T12:54:55;10.90;99.90
29713;DHT22;16623;53.632;10.016;2022-12-29T12:57:41;10.90;99.90
29713;DHT22;16623;53.632;10.016;2022-12-29T13:00:13;10.90;99.90
29713;DHT22;16623;53.632;10.016;2022-12-29T13:02:53;10.90;99.90
29713;DHT22;16623;53.632;10.016;2022-12-29T13:09:03;10.80;99.90
29713;DHT22;16623;53.632;10.016;2022-12-29T13:11:56;10.90;99.90
29713;DHT22;16623;53.632;10.016;2022-12-29T13:20:25;10.90;99.90
29713;DHT22;16623;53.632;10.016;2022-12-29T13:25:42;10.80;99.90
29713;DHT22;16623;53.632;10.016;2022-12-29T13:28:29;10.70;99.90
29713;DHT22;16623;53.632;10.016;2022-12-29T13:31:20;10.60;99.90
29713;DHT22;16623;53.632;10.016;2022-12-29T13:37:10;10.40;99.90
29713;DHT22;16623;53.632;10.016;2022-12-29T13:39:50;10.30;99.90
29713;DHT22;16623;53.632;10.016;2022-12-29T13:42:18;10.00;99.90
29713;DHT22;16623;53.632;10.016;2022-12-29T13:44:48;10.00;99.90
29713;DHT22;16623;53.632;10.016;2022-12-29T13:47:28;9.10;99.90
29713;DHT22;16623;53.632;10.016;2022-12-29T13:49:59;9.80;99.90
29713;DHT22;16623;53.632;10.016;2022-12-29T13:52:43;9.80;99.90
29713;DHT22;16623;53.632;10.016;2022-12-29T14:00:59;9.70;99.90
29713;DHT22;16623;53.632;10.016;2022-12-29T14:08:59;8.90;99.90
29713;DHT22;16623;53.632;10.016;2022-12-29T14:11:33;8.70;99.90
29713;DHT22;16623;53.632;10.016;2022-12-29T14:14:10;8.40;99.90
29713;DHT22;16623;53.632;10.016;2022-12-29T14:16:40;8.30;99.90
29713;DHT22;16623;53.632;10.016;2022-12-29T14:19:26;8.20;99.90
29713;DHT22;16623;53.632;10.016;2022-12-29T14:22:02;8.20;99.90
29713;DHT22;16623;53.632;10.016;2022-12-29T14:29:50;8.20;99.90
29713;DHT22;16623;53.632;10.016;2022-12-29T14:34:51;8.20;99.90
29713;DHT22;16623;53.632;10.016;2022-12-29T14:40:25;8.10;99.90
29713;DHT22;16623;53.632;10.016;2022-12-29T14:42:55;8.20;99.90
29713;DHT22;16623;53.632;10.016;2022-12-29T14:45:30;8.20;99.90
29713;DHT22;16623;53.632;10.016;2022-12-29T14:47:58;8.20;99.90
29713;DHT22;16623;53.632;10.016;2022-12-29T14:50:43;8.20;99.90
29713;DHT22;16623;53.632;10.016;2022-12-29T14:56:09;8.20;99.90
29713;DHT22;16623;53.632;10.016;2022-12-29T14:58:58;8.20;99.90
29713;DHT22;16623;53.632;10.016;2022-12-29T15:03:56;8.20;99.90
29713;DHT22;16623;53.632;10.016;2022-12-29T15:06:27;8.20;99.90
29713;DHT22;16623;53.632;10.016;2022-12-29T15:09:20;8.20;99.90
29713;DHT22;16623;53.632;10.016;2022-12-29T15:11:52;8.30;99.90
29713;DHT22;16623;53.632;10.016;2022-12-29T15:14:54;8.20;99.90
29713;DHT22;16623;53.632;10.016;2022-12-29T15:17:29;8.20;99.90
29713;DHT22;16623;53.632;10.016;2022-12-29T15:19:57;8.20;99.90
29713;DHT22;16623;53.632;10.016;2022-12-29T15:22:23;8.20;99.90
29713;DHT22;16623;53.632;10.016;2022-12-29T15:24:54;8.20;99.90
29713;DHT22;16623;53.632;10.016;2022-12-29T15:27:22;8.30;99.90
29713;DHT22;16623;53.632;10.016;2022-12-29T15:29:48;8.30;99.90
29713;DHT22;16623;53.632;10.016;2022-12-29T15:32:25;8.40;99.90
29713;DHT22;16623;53.632;10.016;2022-12-29T15:34:58;8.40;99.90
29713;DHT22;16623;53.632;10.016;2022-12-29T15:37:34;8.50;99.90
29713;DHT22;16623;53.632;10.016;2022-12-29T15:40:01;8.50;99.90
29713;DHT22;16623;53.632;10.016;2022-12-29T15:42:44;8.50;99.90
29713;DHT22;16623;53.632;10.016;2022-12-29T15:45:14;8.50;99.90
29713;DHT22;16623;53.632;10.016;2022-12-29T15:47:44;8.50;99.90
29713;DHT22;16623;53.632;10.016;2022-12-29T15:50:27;8.50;99.90
29713;DHT22;16623;53.632;10.016;2022-12-29T15:52:54;8.50;99.90
29713;DHT22;16623;53.632;10.016;2022-12-29T15:55:25;8.40;99.90
29713;DHT22;16623;53.632;10.016;2022-12-29T15:57:57;8.40;99.90
29713;DHT22;16623;53.632;10.016;2022-12-29T16:00:29;8.40;99.90
29713;DHT22;16623;53.632;10.016;2022-12-29T16:02:58;8.40;99.90
29713;DHT22;16623;53.632;10.016;2022-12-29T16:05:24;8.40;99.90
29713;DHT22;16623;53.632;10.016;2022-12-29T16:07:59;8.40;99.90
29713;DHT22;16623;53.632;10.016;2022-12-29T16:10:41;8.40;99.90
29713;DHT22;16623;53.632;10.016;2022-12-29T16:13:25;8.30;99.90
29713;DHT22;16623;53.632;10.016;2022-12-29T16:16:07;8.20;99.90
29713;DHT22;16623;53.632;10.016;2022-12-29T16:18:36;8.20;99.90
29713;DHT22;16623;53.632;10.016;2022-12-29T16:21:06;8.10;99.90
29713;DHT22;16623;53.632;10.016;2022-12-29T16:23:46;8.20;99.90
29713;DHT22;16623;53.632;10.016;2022-12-29T16:26:22;8.10;99.90
29713;DHT22;16623;53.632;10.016;2022-12-29T16:28:54;8.00;99.90
29713;DHT22;16623;53.632;10.016;2022-12-29T16:33:53;7.90;99.90
29713;DHT22;16623;53.632;10.016;2022-12-29T16:38:50;7.80;99.90
29713;DHT22;16623;53.632;10.016;2022-12-29T16:41:29;7.80;99.90
29713;DHT22;16623;53.632;10.016;2022-12-29T16:44:18;7.80;99.90
29713;DHT22;16623;53.632;10.016;2022-12-29T16:49:35;7.80;99.90
29713;DHT22;16623;53.632;10.016;2022-12-29T16:52:13;7.80;99.90
29713;DHT22;16623;53.632;10.016;2022-12-29T16:54:42;7.80;99.90
29713;DHT22;16623;53.632;10.016;2022-12-29T16:59:40;7.80;99.90
29713;DHT22;16623;53.632;10.016;2022-12-29T17:02:15;7.70;99.90
29713;DHT22;16623;53.632;10.016;2022-12-29T17:04:45;7.80;99.90
29713;DHT22;16623;53.632;10.016;2022-12-29T17:07:22;7.80;99.90
29713;DHT22;16623;53.632;10.016;2022-12-29T17:09:49;7.80;99.90
29713;DHT22;16623;53.632;10.016;2022-12-29T17:12:33;7.70;99.90
29713;DHT22;16623;53.632;10.016;2022-12-29T17:15:21;7.80;99.90
29713;DHT22;16623;53.632;10.016;2022-12-29T17:17:53;7.80;99.90
29713;DHT22;16623;53.632;10.016;2022-12-29T17:20:25;7.90;99.90
29713;DHT22;16623;53.632;10.016;2022-12-29T17:23:00;7.90;99.90
29713;DHT22;16623;53.632;10.016;2022-12-29T17:25:30;7.80;99.90
29713;DHT22;16623;53.632;10.016;2022-12-29T17:28:20;7.90;99.90
29713;DHT22;16623;53.632;10.016;2022-12-29T17:30:47;7.90;99.90
29713;DHT22;16623;53.632;10.016;2022-12-29T17:33:21;7.90;99.90
29713;DHT22;16623;53.632;10.016;2022-12-29T17:35:47;8.00;99.90
29713;DHT22;16623;53.632;10.016;2022-12-29T17:38:26;8.10;99.90
29713;DHT22;16623;53.632;10.016;2022-12-29T17:40:53;8.10;99.90
29713;DHT22;16623;53.632;10.016;2022-12-29T17:43:19;8.10;99.90
29713;DHT22;16623;53.632;10.016;2022-12-29T17:45:48;8.20;99.90